Hodgdon, Maine
Current Conditions -  °F | °C
As of 3:12 PM on Wednesday 28 Jan 2015 (Local Time) from KHUL Reporting Station
Light Snow Light Snow  
Wind Chill: -1°   Ceiling: 4200
Heat Index: 13°   Visibility: 3mi
Dew Point:   Wind: 12mph
Humidity: 74%   Direction: 350°N
Pressure: 29.89"   Gusts: NA
Location:  46.1163°N, 67.9329°W
Report Text: KHUL 282012Z AUTO 35010KT 3SM -SN BKN042 BKN049 OVC060 M11/M14 A2989 RMK AO2 P0000 T11061144
Loading
Personal Weather Stations






























Interactive Weather Map New forecast layout! Learn more

10-Day Weather Forecast

Advertisements
Track Severe Weather on mobile